sensor_id;sensor_type;location;lat;lon;timestamp;temperature;humidity
10572;DHT22;5334;48.928;12.704;2023-04-24T00:02:21;11.90;99.90
10572;DHT22;5334;48.928;12.704;2023-04-24T00:04:47;11.90;99.90
10572;DHT22;5334;48.928;12.704;2023-04-24T00:07:14;11.90;99.90
10572;DHT22;5334;48.928;12.704;2023-04-24T00:09:43;11.90;99.90
10572;DHT22;5334;48.928;12.704;2023-04-24T00:12:10;11.90;99.90
10572;DHT22;5334;48.928;12.704;2023-04-24T00:14:36;11.90;99.90
10572;DHT22;5334;48.928;12.704;2023-04-24T00:17:01;11.90;99.90
10572;DHT22;5334;48.928;12.704;2023-04-24T00:19:30;11.90;99.90
10572;DHT22;5334;48.928;12.704;2023-04-24T00:21:56;11.80;99.90
10572;DHT22;5334;48.928;12.704;2023-04-24T00:24:21;11.80;99.90
10572;DHT22;5334;48.928;12.704;2023-04-24T00:26:47;11.80;99.90
10572;DHT22;5334;48.928;12.704;2023-04-24T00:29:13;11.80;99.90
10572;DHT22;5334;48.928;12.704;2023-04-24T00:31:39;11.70;99.90
10572;DHT22;5334;48.928;12.704;2023-04-24T00:34:05;11.70;99.90
10572;DHT22;5334;48.928;12.704;2023-04-24T00:36:31;11.70;99.90
10572;DHT22;5334;48.928;12.704;2023-04-24T00:38:58;11.70;99.90
10572;DHT22;5334;48.928;12.704;2023-04-24T00:41:25;11.70;99.90
10572;DHT22;5334;48.928;12.704;2023-04-24T00:43:52;11.70;99.90
10572;DHT22;5334;48.928;12.704;2023-04-24T00:46:17;11.70;99.90
10572;DHT22;5334;48.928;12.704;2023-04-24T00:48:43;11.70;99.90
10572;DHT22;5334;48.928;12.704;2023-04-24T00:51:09;11.70;99.90
10572;DHT22;5334;48.928;12.704;2023-04-24T00:53:35;11.80;99.90
10572;DHT22;5334;48.928;12.704;2023-04-24T00:56:02;11.80;99.90
10572;DHT22;5334;48.928;12.704;2023-04-24T00:58:28;11.80;99.90
10572;DHT22;5334;48.928;12.704;2023-04-24T01:00:54;11.80;99.90
10572;DHT22;5334;48.928;12.704;2023-04-24T01:03:25;11.80;99.90
10572;DHT22;5334;48.928;12.704;2023-04-24T01:05:52;11.80;99.90
10572;DHT22;5334;48.928;12.704;2023-04-24T01:08:24;11.80;99.90
10572;DHT22;5334;48.928;12.704;2023-04-24T01:10:51;11.90;99.90
10572;DHT22;5334;48.928;12.704;2023-04-24T01:13:20;11.90;99.90
10572;DHT22;5334;48.928;12.704;2023-04-24T01:15:47;11.90;99.90
10572;DHT22;5334;48.928;12.704;2023-04-24T01:18:13;11.90;99.90
10572;DHT22;5334;48.928;12.704;2023-04-24T01:20:40;11.90;99.90
10572;DHT22;5334;48.928;12.704;2023-04-24T01:23:07;11.90;99.90
10572;DHT22;5334;48.928;12.704;2023-04-24T01:25:32;12.00;99.90
10572;DHT22;5334;48.928;12.704;2023-04-24T01:27:59;12.00;99.90
10572;DHT22;5334;48.928;12.704;2023-04-24T01:30:28;12.00;99.90
10572;DHT22;5334;48.928;12.704;2023-04-24T01:32:55;11.90;99.90
10572;DHT22;5334;48.928;12.704;2023-04-24T01:35:20;11.90;99.90
10572;DHT22;5334;48.928;12.704;2023-04-24T01:37:46;11.80;99.90
10572;DHT22;5334;48.928;12.704;2023-04-24T01:40:12;11.80;99.90
10572;DHT22;5334;48.928;12.704;2023-04-24T01:42:38;11.70;99.90
10572;DHT22;5334;48.928;12.704;2023-04-24T01:45:04;11.70;99.90
10572;DHT22;5334;48.928;12.704;2023-04-24T01:47:31;11.70;99.90
10572;DHT22;5334;48.928;12.704;2023-04-24T01:49:57;11.70;99.90
10572;DHT22;5334;48.928;12.704;2023-04-24T01:52:23;11.70;99.90
10572;DHT22;5334;48.928;12.704;2023-04-24T01:54:49;11.60;99.90
10572;DHT22;5334;48.928;12.704;2023-04-24T01:57:14;11.50;99.90
10572;DHT22;5334;48.928;12.704;2023-04-24T01:59:41;11.40;99.90
10572;DHT22;5334;48.928;12.704;2023-04-24T02:02:07;11.40;99.90
10572;DHT22;5334;48.928;12.704;2023-04-24T02:04:33;11.30;99.90
10572;DHT22;5334;48.928;12.704;2023-04-24T02:06:58;11.20;99.90
10572;DHT22;5334;48.928;12.704;2023-04-24T02:09:24;11.20;99.90
10572;DHT22;5334;48.928;12.704;2023-04-24T02:11:50;11.20;99.90
10572;DHT22;5334;48.928;12.704;2023-04-24T02:14:16;11.20;99.90
10572;DHT22;5334;48.928;12.704;2023-04-24T02:16:42;11.20;99.90
10572;DHT22;5334;48.928;12.704;2023-04-24T02:19:07;11.30;99.90
10572;DHT22;5334;48.928;12.704;2023-04-24T02:21:33;11.30;99.90
10572;DHT22;5334;48.928;12.704;2023-04-24T02:23:59;11.30;99.90
10572;DHT22;5334;48.928;12.704;2023-04-24T02:26:25;11.30;99.90
10572;DHT22;5334;48.928;12.704;2023-04-24T02:28:50;11.30;99.90
10572;DHT22;5334;48.928;12.704;2023-04-24T02:31:16;11.40;99.90
10572;DHT22;5334;48.928;12.704;2023-04-24T02:33:42;11.40;99.90
10572;DHT22;5334;48.928;12.704;2023-04-24T02:36:07;11.40;99.90
10572;DHT22;5334;48.928;12.704;2023-04-24T02:38:33;11.40;99.90
10572;DHT22;5334;48.928;12.704;2023-04-24T02:40:59;11.40;99.90
10572;DHT22;5334;48.928;12.704;2023-04-24T02:43:26;11.40;99.90
10572;DHT22;5334;48.928;12.704;2023-04-24T02:45:51;11.40;99.90
10572;DHT22;5334;48.928;12.704;2023-04-24T02:48:17;11.30;99.90
10572;DHT22;5334;48.928;12.704;2023-04-24T02:50:42;11.40;99.90
10572;DHT22;5334;48.928;12.704;2023-04-24T02:53:08;11.40;99.90
10572;DHT22;5334;48.928;12.704;2023-04-24T02:55:34;11.50;99.90
10572;DHT22;5334;48.928;12.704;2023-04-24T02:58:00;11.50;99.90
10572;DHT22;5334;48.928;12.704;2023-04-24T03:00:25;11.50;99.90
10572;DHT22;5334;48.928;12.704;2023-04-24T03:02:51;11.60;99.90
10572;DHT22;5334;48.928;12.704;2023-04-24T03:05:17;11.60;99.90
10572;DHT22;5334;48.928;12.704;2023-04-24T03:07:42;11.60;99.90
10572;DHT22;5334;48.928;12.704;2023-04-24T03:10:08;11.50;99.90
10572;DHT22;5334;48.928;12.704;2023-04-24T03:12:34;11.50;99.90
10572;DHT22;5334;48.928;12.704;2023-04-24T03:14:59;11.50;99.90
10572;DHT22;5334;48.928;12.704;2023-04-24T03:17:25;11.50;99.90
10572;DHT22;5334;48.928;12.704;2023-04-24T03:19:51;11.50;99.90
10572;DHT22;5334;48.928;12.704;2023-04-24T03:22:16;11.50;99.90
10572;DHT22;5334;48.928;12.704;2023-04-24T03:24:42;11.50;99.90
10572;DHT22;5334;48.928;12.704;2023-04-24T03:27:08;11.50;99.90
10572;DHT22;5334;48.928;12.704;2023-04-24T03:29:33;11.40;99.90
10572;DHT22;5334;48.928;12.704;2023-04-24T03:31:59;11.40;99.90
10572;DHT22;5334;48.928;12.704;2023-04-24T03:34:25;11.40;99.90
10572;DHT22;5334;48.928;12.704;2023-04-24T03:36:50;11.30;99.90
10572;DHT22;5334;48.928;12.704;2023-04-24T03:39:16;11.30;99.90
10572;DHT22;5334;48.928;12.704;2023-04-24T03:41:42;11.30;99.90
10572;DHT22;5334;48.928;12.704;2023-04-24T03:44:08;11.40;99.90
10572;DHT22;5334;48.928;12.704;2023-04-24T03:46:33;11.40;99.90
10572;DHT22;5334;48.928;12.704;2023-04-24T03:49:00;11.40;99.90
10572;DHT22;5334;48.928;12.704;2023-04-24T03:51:26;11.40;99.90
10572;DHT22;5334;48.928;12.704;2023-04-24T03:53:53;11.30;99.90
10572;DHT22;5334;48.928;12.704;2023-04-24T03:56:19;11.30;99.90
10572;DHT22;5334;48.928;12.704;2023-04-24T03:58:45;11.30;99.90
10572;DHT22;5334;48.928;12.704;2023-04-24T04:01:11;11.20;99.90
10572;DHT22;5334;48.928;12.704;2023-04-24T04:03:37;11.20;99.90
10572;DHT22;5334;48.928;12.704;2023-04-24T04:06:03;11.20;99.90
10572;DHT22;5334;48.928;12.704;2023-04-24T04:08:28;11.20;99.90
10572;DHT22;5334;48.928;12.704;2023-04-24T04:10:54;11.30;99.90
10572;DHT22;5334;48.928;12.704;2023-04-24T04:13:20;11.30;99.90
10572;DHT22;5334;48.928;12.704;2023-04-24T04:15:46;11.30;99.90
10572;DHT22;5334;48.928;12.704;2023-04-24T04:18:11;11.30;99.90
10572;DHT22;5334;48.928;12.704;2023-04-24T04:20:37;11.30;99.90
10572;DHT22;5334;48.928;12.704;2023-04-24T04:23:03;11.20;99.90
10572;DHT22;5334;48.928;12.704;2023-04-24T04:25:28;11.30;99.90
10572;DHT22;5334;48.928;12.704;2023-04-24T04:27:54;11.30;99.90
10572;DHT22;5334;48.928;12.704;2023-04-24T04:30:20;11.30;99.90
10572;DHT22;5334;48.928;12.704;2023-04-24T04:32:46;11.30;99.90
10572;DHT22;5334;48.928;12.704;2023-04-24T04:35:12;11.30;99.90
10572;DHT22;5334;48.928;12.704;2023-04-24T04:37:38;11.30;99.90
10572;DHT22;5334;48.928;12.704;2023-04-24T04:40:04;11.30;99.90
10572;DHT22;5334;48.928;12.704;2023-04-24T04:42:33;11.30;99.90
10572;DHT22;5334;48.928;12.704;2023-04-24T04:45:01;11.30;99.90
10572;DHT22;5334;48.928;12.704;2023-04-24T04:47:27;11.20;99.90
10572;DHT22;5334;48.928;12.704;2023-04-24T04:49:54;11.20;99.90
10572;DHT22;5334;48.928;12.704;2023-04-24T04:52:20;11.20;99.90
10572;DHT22;5334;48.928;12.704;2023-04-24T04:54:50;11.20;99.90
10572;DHT22;5334;48.928;12.704;2023-04-24T04:57:15;11.20;99.90
10572;DHT22;5334;48.928;12.704;2023-04-24T04:59:41;11.20;99.90
10572;DHT22;5334;48.928;12.704;2023-04-24T05:02:07;11.20;99.90
10572;DHT22;5334;48.928;12.704;2023-04-24T05:04:33;11.20;99.90
10572;DHT22;5334;48.928;12.704;2023-04-24T05:06:58;11.20;99.90
10572;DHT22;5334;48.928;12.704;2023-04-24T05:09:24;11.20;99.90
10572;DHT22;5334;48.928;12.704;2023-04-24T05:11:52;11.20;99.90
10572;DHT22;5334;48.928;12.704;2023-04-24T05:14:18;11.20;99.90
10572;DHT22;5334;48.928;12.704;2023-04-24T05:16:44;11.20;99.90
10572;DHT22;5334;48.928;12.704;2023-04-24T05:19:10;11.20;99.90
10572;DHT22;5334;48.928;12.704;2023-04-24T05:21:37;11.20;99.90
10572;DHT22;5334;48.928;12.704;2023-04-24T05:24:02;11.20;99.90
10572;DHT22;5334;48.928;12.704;2023-04-24T05:26:28;11.20;99.90
10572;DHT22;5334;48.928;12.704;2023-04-24T05:28:54;11.30;99.90
10572;DHT22;5334;48.928;12.704;2023-04-24T05:31:19;11.30;99.90
10572;DHT22;5334;48.928;12.704;2023-04-24T05:33:45;11.30;99.90
10572;DHT22;5334;48.928;12.704;2023-04-24T05:36:11;11.30;99.90
10572;DHT22;5334;48.928;12.704;2023-04-24T05:38:36;11.30;99.90
10572;DHT22;5334;48.928;12.704;2023-04-24T05:41:02;11.30;99.90
10572;DHT22;5334;48.928;12.704;2023-04-24T05:43:28;11.40;99.90
10572;DHT22;5334;48.928;12.704;2023-04-24T05:45:53;11.40;99.90
10572;DHT22;5334;48.928;12.704;2023-04-24T05:48:19;11.40;99.90
10572;DHT22;5334;48.928;12.704;2023-04-24T05:50:45;11.40;99.90
10572;DHT22;5334;48.928;12.704;2023-04-24T05:53:13;11.40;99.90
10572;DHT22;5334;48.928;12.704;2023-04-24T05:55:39;11.50;99.90
10572;DHT22;5334;48.928;12.704;2023-04-24T05:58:04;11.50;99.90
10572;DHT22;5334;48.928;12.704;2023-04-24T06:00:31;11.50;99.90
10572;DHT22;5334;48.928;12.704;2023-04-24T06:02:56;11.50;99.90
10572;DHT22;5334;48.928;12.704;2023-04-24T06:05:22;11.50;99.90
10572;DHT22;5334;48.928;12.704;2023-04-24T06:07:48;11.50;99.90
10572;DHT22;5334;48.928;12.704;2023-04-24T06:10:14;11.50;99.90
10572;DHT22;5334;48.928;12.704;2023-04-24T06:12:39;11.40;99.90
10572;DHT22;5334;48.928;12.704;2023-04-24T06:15:06;11.40;99.90
10572;DHT22;5334;48.928;12.704;2023-04-24T06:17:32;11.40;99.90
10572;DHT22;5334;48.928;12.704;2023-04-24T06:19:58;11.40;99.90
10572;DHT22;5334;48.928;12.704;2023-04-24T06:22:23;11.40;99.90
10572;DHT22;5334;48.928;12.704;2023-04-24T06:24:49;11.40;99.90
10572;DHT22;5334;48.928;12.704;2023-04-24T06:27:15;11.30;99.90
10572;DHT22;5334;48.928;12.704;2023-04-24T06:29:40;11.40;99.90
10572;DHT22;5334;48.928;12.704;2023-04-24T06:32:06;11.40;99.90
10572;DHT22;5334;48.928;12.704;2023-04-24T06:34:33;11.40;99.90
10572;DHT22;5334;48.928;12.704;2023-04-24T06:37:00;11.40;99.90
10572;DHT22;5334;48.928;12.704;2023-04-24T06:39:25;11.40;99.90
10572;DHT22;5334;48.928;12.704;2023-04-24T06:41:51;11.50;99.90
10572;DHT22;5334;48.928;12.704;2023-04-24T06:44:16;11.50;99.90
10572;DHT22;5334;48.928;12.704;2023-04-24T06:46:42;11.50;99.90
10572;DHT22;5334;48.928;12.704;2023-04-24T06:49:08;11.60;99.90
10572;DHT22;5334;48.928;12.704;2023-04-24T06:51:34;11.70;99.90
10572;DHT22;5334;48.928;12.704;2023-04-24T06:53:59;11.70;99.90
10572;DHT22;5334;48.928;12.704;2023-04-24T06:56:25;11.70;99.90
10572;DHT22;5334;48.928;12.704;2023-04-24T06:58:51;11.70;99.90
10572;DHT22;5334;48.928;12.704;2023-04-24T07:01:17;11.70;99.90
10572;DHT22;5334;48.928;12.704;2023-04-24T07:03:43;11.60;99.90
10572;DHT22;5334;48.928;12.704;2023-04-24T07:06:09;11.60;99.90
10572;DHT22;5334;48.928;12.704;2023-04-24T07:08:38;11.60;99.90
10572;DHT22;5334;48.928;12.704;2023-04-24T07:11:04;11.60;99.90
10572;DHT22;5334;48.928;12.704;2023-04-24T07:13:30;11.50;99.90
10572;DHT22;5334;48.928;12.704;2023-04-24T07:15:55;11.50;99.90
10572;DHT22;5334;48.928;12.704;2023-04-24T07:18:22;11.50;99.90
10572;DHT22;5334;48.928;12.704;2023-04-24T07:20:47;11.50;99.90
10572;DHT22;5334;48.928;12.704;2023-04-24T07:23:15;11.50;99.90
10572;DHT22;5334;48.928;12.704;2023-04-24T07:25:41;11.50;99.90
10572;DHT22;5334;48.928;12.704;2023-04-24T07:28:07;11.50;99.90
10572;DHT22;5334;48.928;12.704;2023-04-24T07:30:33;11.50;99.90
10572;DHT22;5334;48.928;12.704;2023-04-24T07:32:59;11.50;99.90
10572;DHT22;5334;48.928;12.704;2023-04-24T07:35:26;11.60;99.90
10572;DHT22;5334;48.928;12.704;2023-04-24T07:37:53;11.60;99.90
10572;DHT22;5334;48.928;12.704;2023-04-24T07:40:20;11.70;99.90
10572;DHT22;5334;48.928;12.704;2023-04-24T07:42:46;11.70;99.90
10572;DHT22;5334;48.928;12.704;2023-04-24T07:45:14;11.80;99.90
10572;DHT22;5334;48.928;12.704;2023-04-24T07:47:42;11.80;99.90
10572;DHT22;5334;48.928;12.704;2023-04-24T07:50:09;11.80;99.90
10572;DHT22;5334;48.928;12.704;2023-04-24T07:52:35;11.80;99.90
10572;DHT22;5334;48.928;12.704;2023-04-24T07:55:01;11.80;99.90
10572;DHT22;5334;48.928;12.704;2023-04-24T07:57:28;11.70;99.90
10572;DHT22;5334;48.928;12.704;2023-04-24T07:59:54;11.70;99.90
10572;DHT22;5334;48.928;12.704;2023-04-24T08:02:19;11.80;99.90
10572;DHT22;5334;48.928;12.704;2023-04-24T08:04:47;11.90;99.90
10572;DHT22;5334;48.928;12.704;2023-04-24T08:07:12;11.90;99.90
10572;DHT22;5334;48.928;12.704;2023-04-24T08:09:38;11.90;99.90
10572;DHT22;5334;48.928;12.704;2023-04-24T08:12:04;11.90;99.90
10572;DHT22;5334;48.928;12.704;2023-04-24T08:14:30;11.90;99.90
10572;DHT22;5334;48.928;12.704;2023-04-24T08:16:55;11.90;99.90
10572;DHT22;5334;48.928;12.704;2023-04-24T08:19:21;11.90;99.90
10572;DHT22;5334;48.928;12.704;2023-04-24T08:21:47;11.90;99.90
10572;DHT22;5334;48.928;12.704;2023-04-24T08:24:13;12.00;99.90
10572;DHT22;5334;48.928;12.704;2023-04-24T08:26:39;12.00;99.90
10572;DHT22;5334;48.928;12.704;2023-04-24T08:29:05;12.10;99.90
10572;DHT22;5334;48.928;12.704;2023-04-24T08:31:32;12.20;99.90
10572;DHT22;5334;48.928;12.704;2023-04-24T08:33:58;12.30;99.90
10572;DHT22;5334;48.928;12.704;2023-04-24T08:36:25;12.30;99.90
10572;DHT22;5334;48.928;12.704;2023-04-24T08:38:51;12.40;99.90
10572;DHT22;5334;48.928;12.704;2023-04-24T08:41:18;12.20;99.90
10572;DHT22;5334;48.928;12.704;2023-04-24T08:43:45;12.20;99.90
10572;DHT22;5334;48.928;12.704;2023-04-24T08:46:13;12.20;99.90
10572;DHT22;5334;48.928;12.704;2023-04-24T08:48:39;12.20;99.90
10572;DHT22;5334;48.928;12.704;2023-04-24T08:51:07;12.20;99.90
10572;DHT22;5334;48.928;12.704;2023-04-24T08:53:35;12.00;99.90
10572;DHT22;5334;48.928;12.704;2023-04-24T08:56:01;12.10;99.90
10572;DHT22;5334;48.928;12.704;2023-04-24T08:58:28;12.10;99.90
10572;DHT22;5334;48.928;12.704;2023-04-24T09:00:54;12.20;99.90
10572;DHT22;5334;48.928;12.704;2023-04-24T09:03:21;12.30;99.90
10572;DHT22;5334;48.928;12.704;2023-04-24T09:05:48;12.30;99.90
10572;DHT22;5334;48.928;12.704;2023-04-24T09:08:16;12.40;99.90
10572;DHT22;5334;48.928;12.704;2023-04-24T09:10:43;12.50;99.90
10572;DHT22;5334;48.928;12.704;2023-04-24T09:13:08;12.60;99.90
10572;DHT22;5334;48.928;12.704;2023-04-24T09:15:36;12.60;99.90
10572;DHT22;5334;48.928;12.704;2023-04-24T09:18:02;12.70;99.90
10572;DHT22;5334;48.928;12.704;2023-04-24T09:20:28;12.90;99.90
10572;DHT22;5334;48.928;12.704;2023-04-24T09:22:54;13.10;99.90
10572;DHT22;5334;48.928;12.704;2023-04-24T09:25:21;13.20;99.90
10572;DHT22;5334;48.928;12.704;2023-04-24T09:27:47;13.30;99.90
10572;DHT22;5334;48.928;12.704;2023-04-24T09:30:13;13.50;99.90
10572;DHT22;5334;48.928;12.704;2023-04-24T09:32:46;13.70;99.90
10572;DHT22;5334;48.928;12.704;2023-04-24T09:35:13;13.90;99.90
10572;DHT22;5334;48.928;12.704;2023-04-24T09:40:21;13.80;99.90
10572;DHT22;5334;48.928;12.704;2023-04-24T09:42:55;13.50;99.90
10572;DHT22;5334;48.928;12.704;2023-04-24T09:45:22;13.10;99.90
10572;DHT22;5334;48.928;12.704;2023-04-24T09:47:53;12.70;99.90
10572;DHT22;5334;48.928;12.704;2023-04-24T09:50:19;12.40;99.90
10572;DHT22;5334;48.928;12.704;2023-04-24T09:52:47;12.20;99.90
10572;DHT22;5334;48.928;12.704;2023-04-24T09:55:21;12.20;99.90
10572;DHT22;5334;48.928;12.704;2023-04-24T09:57:55;12.10;99.90
10572;DHT22;5334;48.928;12.704;2023-04-24T10:00:27;12.10;99.90
10572;DHT22;5334;48.928;12.704;2023-04-24T10:03:03;12.40;99.90
10572;DHT22;5334;48.928;12.704;2023-04-24T10:05:33;12.60;99.90
10572;DHT22;5334;48.928;12.704;2023-04-24T10:08:08;12.70;99.90
10572;DHT22;5334;48.928;12.704;2023-04-24T10:10:38;12.90;99.90
10572;DHT22;5334;48.928;12.704;2023-04-24T10:13:04;13.10;99.90
10572;DHT22;5334;48.928;12.704;2023-04-24T10:15:30;13.30;99.90
10572;DHT22;5334;48.928;12.704;2023-04-24T10:17:58;13.60;99.90
10572;DHT22;5334;48.928;12.704;2023-04-24T10:20:26;13.70;99.90
10572;DHT22;5334;48.928;12.704;2023-04-24T10:22:53;13.50;99.90
10572;DHT22;5334;48.928;12.704;2023-04-24T10:25:25;13.50;99.90
10572;DHT22;5334;48.928;12.704;2023-04-24T10:27:52;13.90;99.90
10572;DHT22;5334;48.928;12.704;2023-04-24T10:30:19;14.00;99.90
10572;DHT22;5334;48.928;12.704;2023-04-24T10:32:45;14.20;99.90
10572;DHT22;5334;48.928;12.704;2023-04-24T10:35:13;14.50;99.90
10572;DHT22;5334;48.928;12.704;2023-04-24T10:37:51;15.40;99.90
10572;DHT22;5334;48.928;12.704;2023-04-24T10:40:19;16.20;99.90
10572;DHT22;5334;48.928;12.704;2023-04-24T10:42:48;16.40;99.90
10572;DHT22;5334;48.928;12.704;2023-04-24T10:45:18;16.30;99.90
10572;DHT22;5334;48.928;12.704;2023-04-24T10:48:14;16.10;99.90
10572;DHT22;5334;48.928;12.704;2023-04-24T10:50:50;15.50;99.90
10572;DHT22;5334;48.928;12.704;2023-04-24T10:53:19;15.30;99.90
10572;DHT22;5334;48.928;12.704;2023-04-24T10:58:16;14.50;99.90
10572;DHT22;5334;48.928;12.704;2023-04-24T11:00:43;14.40;99.90
10572;DHT22;5334;48.928;12.704;2023-04-24T11:03:32;14.10;99.90
10572;DHT22;5334;48.928;12.704;2023-04-24T11:05:59;14.00;99.90
10572;DHT22;5334;48.928;12.704;2023-04-24T11:08:27;14.00;99.90
10572;DHT22;5334;48.928;12.704;2023-04-24T11:13:27;13.80;99.90
10572;DHT22;5334;48.928;12.704;2023-04-24T11:16:19;13.70;99.90
10572;DHT22;5334;48.928;12.704;2023-04-24T11:18:51;13.50;99.90
10572;DHT22;5334;48.928;12.704;2023-04-24T11:21:20;13.60;99.90
10572;DHT22;5334;48.928;12.704;2023-04-24T11:23:47;14.00;99.90
10572;DHT22;5334;48.928;12.704;2023-04-24T11:26:18;14.60;99.90
10572;DHT22;5334;48.928;12.704;2023-04-24T11:28:45;14.70;99.90
10572;DHT22;5334;48.928;12.704;2023-04-24T11:31:40;14.50;99.90
10572;DHT22;5334;48.928;12.704;2023-04-24T11:34:14;14.30;99.90
10572;DHT22;5334;48.928;12.704;2023-04-24T11:36:46;14.30;99.90
10572;DHT22;5334;48.928;12.704;2023-04-24T11:39:15;14.60;99.90
10572;DHT22;5334;48.928;12.704;2023-04-24T11:41:41;14.90;99.90
10572;DHT22;5334;48.928;12.704;2023-04-24T11:44:09;15.00;99.90
10572;DHT22;5334;48.928;12.704;2023-04-24T11:46:36;14.90;99.90
10572;DHT22;5334;48.928;12.704;2023-04-24T11:49:03;15.50;99.90
10572;DHT22;5334;48.928;12.704;2023-04-24T11:51:29;16.20;99.90
10572;DHT22;5334;48.928;12.704;2023-04-24T11:53:55;16.80;99.90
10572;DHT22;5334;48.928;12.704;2023-04-24T11:56:22;17.70;99.90
10572;DHT22;5334;48.928;12.704;2023-04-24T12:06:12;17.70;99.90
10572;DHT22;5334;48.928;12.704;2023-04-24T12:08:37;17.20;99.90
10572;DHT22;5334;48.928;12.704;2023-04-24T12:11:05;16.90;99.90
10572;DHT22;5334;48.928;12.704;2023-04-24T12:13:33;16.60;99.90
10572;DHT22;5334;48.928;12.704;2023-04-24T12:15:59;16.30;99.90
10572;DHT22;5334;48.928;12.704;2023-04-24T12:18:25;15.80;99.90
10572;DHT22;5334;48.928;12.704;2023-04-24T12:20:51;15.20;99.90
10572;DHT22;5334;48.928;12.704;2023-04-24T12:23:33;14.70;99.90
10572;DHT22;5334;48.928;12.704;2023-04-24T12:26:00;14.30;99.90
10572;DHT22;5334;48.928;12.704;2023-04-24T12:28:35;13.70;99.90
10572;DHT22;5334;48.928;12.704;2023-04-24T12:31:01;12.70;99.90
10572;DHT22;5334;48.928;12.704;2023-04-24T12:33:27;12.60;99.90
10572;DHT22;5334;48.928;12.704;2023-04-24T12:35:53;12.20;99.90
10572;DHT22;5334;48.928;12.704;2023-04-24T12:38:24;11.90;99.90
10572;DHT22;5334;48.928;12.704;2023-04-24T12:41:02;11.70;99.90
10572;DHT22;5334;48.928;12.704;2023-04-24T12:43:29;11.60;99.90
10572;DHT22;5334;48.928;12.704;2023-04-24T12:45:55;11.70;99.90
10572;DHT22;5334;48.928;12.704;2023-04-24T12:48:21;12.00;99.90
10572;DHT22;5334;48.928;12.704;2023-04-24T12:50:47;12.20;99.90
10572;DHT22;5334;48.928;12.704;2023-04-24T12:53:13;12.40;99.90
10572;DHT22;5334;48.928;12.704;2023-04-24T12:55:40;12.70;99.90
10572;DHT22;5334;48.928;12.704;2023-04-24T12:58:05;13.20;99.90
10572;DHT22;5334;48.928;12.704;2023-04-24T13:00:31;13.60;99.90
10572;DHT22;5334;48.928;12.704;2023-04-24T13:16:36;14.80;99.90
10572;DHT22;5334;48.928;12.704;2023-04-24T13:19:01;16.40;99.90
10572;DHT22;5334;48.928;12.704;2023-04-24T13:21:27;16.00;99.90
10572;DHT22;5334;48.928;12.704;2023-04-24T13:23:53;15.50;99.90
10572;DHT22;5334;48.928;12.704;2023-04-24T13:26:18;15.20;99.90
10572;DHT22;5334;48.928;12.704;2023-04-24T13:28:44;15.00;99.90
10572;DHT22;5334;48.928;12.704;2023-04-24T13:31:10;15.00;99.90
10572;DHT22;5334;48.928;12.704;2023-04-24T13:33:36;15.10;99.90
10572;DHT22;5334;48.928;12.704;2023-04-24T13:36:01;14.90;99.90
10572;DHT22;5334;48.928;12.704;2023-04-24T13:38:27;14.60;99.90
10572;DHT22;5334;48.928;12.704;2023-04-24T13:40:53;14.40;99.90
10572;DHT22;5334;48.928;12.704;2023-04-24T13:43:18;14.20;99.90
10572;DHT22;5334;48.928;12.704;2023-04-24T13:45:44;14.20;99.90
10572;DHT22;5334;48.928;12.704;2023-04-24T13:48:09;14.10;99.90
10572;DHT22;5334;48.928;12.704;2023-04-24T13:50:35;14.00;99.90
10572;DHT22;5334;48.928;12.704;2023-04-24T13:53:02;13.90;99.90
10572;DHT22;5334;48.928;12.704;2023-04-24T13:55:28;13.90;99.90
10572;DHT22;5334;48.928;12.704;2023-04-24T13:57:54;13.80;99.90
10572;DHT22;5334;48.928;12.704;2023-04-24T14:00:20;13.70;99.90
10572;DHT22;5334;48.928;12.704;2023-04-24T14:02:46;13.80;99.90
10572;DHT22;5334;48.928;12.704;2023-04-24T14:05:13;13.70;99.90
10572;DHT22;5334;48.928;12.704;2023-04-24T14:07:40;13.60;99.90
10572;DHT22;5334;48.928;12.704;2023-04-24T14:10:07;13.50;99.90
10572;DHT22;5334;48.928;12.704;2023-04-24T14:12:33;13.60;99.90
10572;DHT22;5334;48.928;12.704;2023-04-24T14:14:59;13.70;99.90
10572;DHT22;5334;48.928;12.704;2023-04-24T14:17:25;14.00;99.90
10572;DHT22;5334;48.928;12.704;2023-04-24T14:19:50;14.20;99.90
10572;DHT22;5334;48.928;12.704;2023-04-24T14:22:17;14.70;99.90
10572;DHT22;5334;48.928;12.704;2023-04-24T14:24:43;15.00;99.90
10572;DHT22;5334;48.928;12.704;2023-04-24T14:27:09;15.20;99.90
10572;DHT22;5334;48.928;12.704;2023-04-24T14:29:34;15.40;99.90
10572;DHT22;5334;48.928;12.704;2023-04-24T14:32:00;15.90;99.90
10572;DHT22;5334;48.928;12.704;2023-04-24T14:34:26;16.10;99.90
10572;DHT22;5334;48.928;12.704;2023-04-24T14:36:52;16.20;99.90
10572;DHT22;5334;48.928;12.704;2023-04-24T14:39:18;16.40;99.90
10572;DHT22;5334;48.928;12.704;2023-04-24T14:41:43;16.50;99.90
10572;DHT22;5334;48.928;12.704;2023-04-24T14:44:09;16.40;99.90
10572;DHT22;5334;48.928;12.704;2023-04-24T14:46:36;16.20;99.90
10572;DHT22;5334;48.928;12.704;2023-04-24T14:49:01;15.60;99.90
10572;DHT22;5334;48.928;12.704;2023-04-24T14:51:27;15.20;99.90
10572;DHT22;5334;48.928;12.704;2023-04-24T14:53:53;14.80;99.90
10572;DHT22;5334;48.928;12.704;2023-04-24T14:56:18;14.50;99.90
10572;DHT22;5334;48.928;12.704;2023-04-24T14:58:44;14.40;99.90
10572;DHT22;5334;48.928;12.704;2023-04-24T15:01:10;14.30;99.90
10572;DHT22;5334;48.928;12.704;2023-04-24T15:03:36;14.20;99.90
10572;DHT22;5334;48.928;12.704;2023-04-24T15:06:01;14.30;99.90
10572;DHT22;5334;48.928;12.704;2023-04-24T15:08:27;14.50;99.90
10572;DHT22;5334;48.928;12.704;2023-04-24T15:10:53;14.50;99.90
10572;DHT22;5334;48.928;12.704;2023-04-24T15:13:19;14.40;99.90
10572;DHT22;5334;48.928;12.704;2023-04-24T15:15:46;14.20;99.90
10572;DHT22;5334;48.928;12.704;2023-04-24T15:18:12;14.10;99.90
10572;DHT22;5334;48.928;12.704;2023-04-24T15:20:38;13.90;99.90
10572;DHT22;5334;48.928;12.704;2023-04-24T15:23:10;13.70;99.90
10572;DHT22;5334;48.928;12.704;2023-04-24T15:25:36;13.60;99.90
10572;DHT22;5334;48.928;12.704;2023-04-24T15:28:03;13.60;99.90
10572;DHT22;5334;48.928;12.704;2023-04-24T15:30:30;13.60;99.90
10572;DHT22;5334;48.928;12.704;2023-04-24T15:32:56;13.70;99.90
10572;DHT22;5334;48.928;12.704;2023-04-24T15:35:21;14.00;99.90
10572;DHT22;5334;48.928;12.704;2023-04-24T15:37:47;14.20;99.90
10572;DHT22;5334;48.928;12.704;2023-04-24T15:40:13;14.30;99.90
10572;DHT22;5334;48.928;12.704;2023-04-24T15:42:42;14.20;99.90
10572;DHT22;5334;48.928;12.704;2023-04-24T15:45:08;14.10;99.90
10572;DHT22;5334;48.928;12.704;2023-04-24T15:47:34;14.00;99.90
10572;DHT22;5334;48.928;12.704;2023-04-24T15:50:01;14.00;99.90
10572;DHT22;5334;48.928;12.704;2023-04-24T15:52:27;13.90;99.90
10572;DHT22;5334;48.928;12.704;2023-04-24T15:54:52;13.90;99.90
10572;DHT22;5334;48.928;12.704;2023-04-24T15:57:18;13.60;99.90